FQMA/MPM METAR and TAF weather

Enter ICAO airport designator
Station Type Date Time Source
FQMA METAR 2018/10/21 07:00 UTC NOAA

FQMA 210700Z 23019KT 9999 SCT020 21/10 Q1030 NOSIG


Station Type Date Time Source
FQMA Decoded METAR 2018/10/21 07:00 UTC NOAA

Maputo / Mavalane, Mozambique (FQMA) 25-55S 032-34E 44M
Oct 21, 2018 - 03:00 AM EDT / 2018.10.21 0700 UTC
Wind: from the SW (230 degrees) at 22 MPH (19 KT):0
Visibility: greater than 7 mile(s):0
Sky conditions: partly cloudy
Temperature: 69 F (21 C)
Dew Point: 50 F (10 C)
Relative Humidity: 49%
Pressure (altimeter): 30.42 in. Hg (1030 hPa)
ob: FQMA 210700Z 23019KT 9999 SCT020 21/10 Q1030 NOSIG
cycle: 7

Station Type Date Time Source
FQMA TAF 2018/10/21 06:12 UTC NOAA

TAF FQMA 210400Z 2106/2212 21012KT 9999 FEW020
BECMG 2110/2112 15010G20KT
BECMG 2118/2120 17012KT SCT020
BECMG 2206/2208 23010KT SCT020 TX24/2113Z TN16/2203Z


Example: see airport list